Time;durP1;ratioP1;P1;durP2;ratioP2;P2;SDS_P1;SDS_P2;PMS_P1;PMS_P2;Temp;Humidity;BMP_temperature;BMP_pressure;BME280_temperature;BME280_humidity;BME280_pressure;Samples;Min_cycle;Max_cycle;Signal;HPM_P1;HPM_P2
2024/01/11 00:01:49;;;;;;;1999.90;999.90;;;;;;;;;;4964982;28;20051;-88
2024/01/11 00:04:16;;;;;;;1999.90;999.90;;;;;;;;;;4971745;28;20054;-89
2024/01/11 00:06:43;;;;;;;1999.90;999.90;;;;;;;;;;4965081;28;20059;-90
2024/01/11 00:09:09;;;;;;;1999.90;999.90;;;;;;;;;;4962322;28;20055;-90
2024/01/11 00:11:36;;;;;;;1999.90;999.90;;;;;;;;;;4970679;28;20039;-89
2024/01/11 00:14:03;;;;;;;1999.90;999.90;;;;;;;;;;4970848;28;20053;-88
2024/01/11 00:16:30;;;;;;;1999.90;999.90;;;;;;;;;;4961690;28;20138;-90
2024/01/11 00:18:57;;;;;;;1999.90;999.90;;;;;;;;;;4964969;28;20055;-90
2024/01/11 00:21:24;;;;;;;1999.90;999.90;;;;;;;;;;4965721;28;20061;-89
2024/01/11 00:23:50;;;;;;;1999.90;999.90;;;;;;;;;;4966233;28;20051;-89
2024/01/11 00:26:17;;;;;;;1999.90;999.90;;;;;;;;;;4971296;28;20043;-88
2024/01/11 00:28:43;;;;;;;1999.90;999.90;;;;;;;;;;4961043;28;20061;-88
2024/01/11 00:31:10;;;;;;;1999.90;999.90;;;;;;;;;;4969978;28;20063;-89
2024/01/11 00:33:38;;;;;;;1999.90;999.90;;;;;;;;;;4960417;28;20050;-90
2024/01/11 00:36:05;;;;;;;1999.90;999.90;;;;;;;;;;4969051;28;20054;-88
2024/01/11 00:38:31;;;;;;;1999.90;999.90;;;;;;;;;;4969001;28;20061;-90
2024/01/11 00:40:58;;;;;;;1999.90;999.90;;;;;;;;;;4966932;28;20062;-90
2024/01/11 00:43:24;;;;;;;1999.90;999.90;;;;;;;;;;4957134;28;20082;-87
2024/01/11 00:45:51;;;;;;;1999.90;999.90;;;;;;;;;;4967073;28;20138;-89
2024/01/11 00:48:17;;;;;;;1999.90;999.90;;;;;;;;;;4961497;28;20061;-89
2024/01/11 00:50:45;;;;;;;1999.90;999.90;;;;;;;;;;4958720;28;20047;-89
2024/01/11 00:53:14;;;;;;;1999.90;999.90;;;;;;;;;;4964540;28;20063;-89
2024/01/11 00:55:40;;;;;;;1999.90;999.90;;;;;;;;;;4968720;28;20055;-89
2024/01/11 00:58:07;;;;;;;1999.90;999.90;;;;;;;;;;4963786;28;20052;-88
2024/01/11 01:00:33;;;;;;;1999.90;999.90;;;;;;;;;;4961188;28;20051;-91
2024/01/11 01:03:00;;;;;;;1999.90;999.90;;;;;;;;;;4965828;28;20047;-88
2024/01/11 01:05:27;;;;;;;1999.90;999.90;;;;;;;;;;4967700;28;20051;-89
2024/01/11 01:07:54;;;;;;;1999.90;999.90;;;;;;;;;;4959215;28;20494;-90
2024/01/11 01:10:21;;;;;;;1999.90;999.90;;;;;;;;;;4963137;28;20589;-90
2024/01/11 01:12:48;;;;;;;1999.90;999.90;;;;;;;;;;4966452;28;20457;-88
2024/01/11 01:15:15;;;;;;;1999.90;999.90;;;;;;;;;;4965927;28;20421;-88
2024/01/11 01:17:41;;;;;;;1999.90;999.90;;;;;;;;;;4969875;28;20047;-88
2024/01/11 01:20:09;;;;;;;1999.90;999.90;;;;;;;;;;4968785;28;20051;-89
2024/01/11 01:22:35;;;;;;;1999.90;999.90;;;;;;;;;;4964877;28;20497;-88
2024/01/11 01:25:04;;;;;;;1999.90;999.90;;;;;;;;;;4969635;28;20482;-89
2024/01/11 01:27:30;;;;;;;1999.90;999.90;;;;;;;;;;4968847;28;20129;-88
2024/01/11 01:29:57;;;;;;;1999.90;999.90;;;;;;;;;;4966742;28;20912;-88
2024/01/11 01:32:23;;;;;;;1999.90;999.90;;;;;;;;;;4967304;28;20061;-90
2024/01/11 01:34:50;;;;;;;1999.90;999.90;;;;;;;;;;4972832;28;20048;-92
2024/01/11 01:37:16;;;;;;;1999.90;999.90;;;;;;;;;;4968956;28;20107;-91
2024/01/11 01:39:43;;;;;;;1999.90;999.90;;;;;;;;;;4970233;28;20475;-89
2024/01/11 01:42:11;;;;;;;1999.90;999.90;;;;;;;;;;4965535;28;20070;-88
2024/01/11 01:44:40;;;;;;;1999.90;999.90;;;;;;;;;;4961399;28;20047;-88
2024/01/11 01:47:07;;;;;;;1999.90;999.90;;;;;;;;;;4963524;28;20071;-88
2024/01/11 01:49:40;;;;;;;1999.90;999.90;;;;;;;;;;4968109;28;20059;-88
2024/01/11 01:52:08;;;;;;;1999.90;999.90;;;;;;;;;;4966854;28;20489;-90
2024/01/11 01:54:35;;;;;;;1999.90;999.90;;;;;;;;;;4968605;28;20069;-89
2024/01/11 01:57:02;;;;;;;1999.90;999.90;;;;;;;;;;4970537;28;20047;-89
2024/01/11 01:59:30;;;;;;;1999.90;999.90;;;;;;;;;;4970164;28;20055;-90
2024/01/11 02:01:57;;;;;;;1999.90;999.90;;;;;;;;;;4970519;28;20043;-89
2024/01/11 02:04:23;;;;;;;1999.90;999.90;;;;;;;;;;4962718;28;20055;-89
2024/01/11 02:06:51;;;;;;;1999.90;999.90;;;;;;;;;;4968915;28;20050;-91
2024/01/11 02:09:18;;;;;;;1999.90;999.90;;;;;;;;;;4962643;28;20126;-88
2024/01/11 02:11:45;;;;;;;1999.90;999.90;;;;;;;;;;4975406;28;20133;-88
2024/01/11 02:14:12;;;;;;;1999.90;999.90;;;;;;;;;;4969121;28;20069;-88
2024/01/11 02:16:40;;;;;;;1999.90;999.90;;;;;;;;;;4971136;28;20050;-89
2024/01/11 02:19:08;;;;;;;1999.90;999.90;;;;;;;;;;4963717;28;20050;-88
2024/01/11 02:21:35;;;;;;;1999.90;999.90;;;;;;;;;;4975674;28;20046;-90
2024/01/11 02:24:07;;;;;;;1999.90;999.90;;;;;;;;;;4971624;28;20054;-88
2024/01/11 02:26:34;;;;;;;1999.90;999.90;;;;;;;;;;4965915;28;20061;-89
2024/01/11 02:29:00;;;;;;;1999.90;999.90;;;;;;;;;;4976957;28;20050;-88
2024/01/11 02:31:27;;;;;;;1999.90;999.90;;;;;;;;;;4976778;28;20043;-90
2024/01/11 02:33:54;;;;;;;1999.90;999.90;;;;;;;;;;4972246;28;20065;-89
2024/01/11 02:36:21;;;;;;;1999.90;999.90;;;;;;;;;;4975211;28;20059;-88
2024/01/11 02:38:47;;;;;;;1999.90;999.90;;;;;;;;;;4973115;28;20059;-90
2024/01/11 02:41:17;;;;;;;1999.90;999.90;;;;;;;;;;4968773;28;20057;-88
2024/01/11 02:43:47;;;;;;;1999.90;999.90;;;;;;;;;;4972752;28;20049;-89
2024/01/11 02:46:14;;;;;;;1999.90;999.90;;;;;;;;;;4975038;28;20058;-89
2024/01/11 02:48:41;;;;;;;1999.90;999.90;;;;;;;;;;4972101;28;20059;-89
2024/01/11 02:51:12;;;;;;;1999.90;999.90;;;;;;;;;;4963705;28;20057;-89
2024/01/11 02:53:39;;;;;;;1999.90;999.90;;;;;;;;;;4971086;28;20082;-88
2024/01/11 02:56:06;;;;;;;1999.90;999.90;;;;;;;;;;4972392;28;20051;-89
2024/01/11 02:58:34;;;;;;;1999.90;999.90;;;;;;;;;;4968332;28;20051;-89
2024/01/11 03:01:00;;;;;;;1999.90;999.90;;;;;;;;;;4969799;28;20057;-88
2024/01/11 03:03:27;;;;;;;1999.90;999.90;;;;;;;;;;4964951;28;20051;-87
2024/01/11 03:05:53;;;;;;;1999.90;999.90;;;;;;;;;;4965820;28;20035;-88
2024/01/11 03:08:20;;;;;;;1999.90;999.90;;;;;;;;;;4961627;28;20107;-87
2024/01/11 03:10:47;;;;;;;1999.90;999.90;;;;;;;;;;4967190;28;20142;-87
2024/01/11 03:13:13;;;;;;;1999.90;999.90;;;;;;;;;;4965416;28;20106;-89
2024/01/11 03:15:41;;;;;;;1999.90;999.90;;;;;;;;;;4968264;28;20047;-88
2024/01/11 03:18:08;;;;;;;1999.90;999.90;;;;;;;;;;4965723;28;20055;-89
2024/01/11 03:20:40;;;;;;;1999.90;999.90;;;;;;;;;;4972866;28;20054;-89
2024/01/11 03:23:06;;;;;;;1999.90;999.90;;;;;;;;;;4963951;28;20057;-89
2024/01/11 03:25:33;;;;;;;1999.90;999.90;;;;;;;;;;4969828;28;20046;-89
2024/01/11 03:27:59;;;;;;;1999.90;999.90;;;;;;;;;;4961968;28;20057;-88
2024/01/11 03:30:26;;;;;;;1999.90;999.90;;;;;;;;;;4972710;28;20497;-88
2024/01/11 03:32:54;;;;;;;1999.90;999.90;;;;;;;;;;4966706;28;20412;-89
2024/01/11 03:35:21;;;;;;;1999.90;999.90;;;;;;;;;;4964593;28;20069;-88
2024/01/11 03:37:48;;;;;;;1999.90;999.90;;;;;;;;;;4970638;28;20082;-88
2024/01/11 03:40:14;;;;;;;1999.90;999.90;;;;;;;;;;4974269;28;20054;-87
2024/01/11 03:42:42;;;;;;;1999.90;999.90;;;;;;;;;;4966761;28;20054;-87
2024/01/11 03:45:10;;;;;;;1999.90;999.90;;;;;;;;;;4963561;28;20130;-89
2024/01/11 03:47:36;;;;;;;1999.90;999.90;;;;;;;;;;4966301;28;20130;-88
2024/01/11 03:50:10;;;;;;;1999.90;999.90;;;;;;;;;;4966072;28;20055;-88
2024/01/11 03:52:36;;;;;;;1999.90;999.90;;;;;;;;;;4968982;28;20050;-88
2024/01/11 03:55:03;;;;;;;1999.90;999.90;;;;;;;;;;4968699;28;20408;-87
2024/01/11 03:57:30;;;;;;;1999.90;999.90;;;;;;;;;;4972325;28;20126;-87
2024/01/11 03:59:56;;;;;;;1999.90;999.90;;;;;;;;;;4972431;28;20063;-87
2024/01/11 04:02:23;;;;;;;1999.90;999.90;;;;;;;;;;4973492;28;20556;-90
2024/01/11 04:04:49;;;;;;;1999.90;999.90;;;;;;;;;;4967670;28;20039;-87
2024/01/11 04:07:17;;;;;;;1999.90;999.90;;;;;;;;;;4972691;28;20062;-88
2024/01/11 04:09:44;;;;;;;1999.90;999.90;;;;;;;;;;4967474;28;20086;-87
2024/01/11 04:12:10;;;;;;;1999.90;999.90;;;;;;;;;;4957766;28;20057;-87
2024/01/11 04:14:39;;;;;;;1999.90;999.90;;;;;;;;;;4960429;28;20063;-88
2024/01/11 04:17:06;;;;;;;1999.90;999.90;;;;;;;;;;4969669;28;20058;-88
2024/01/11 04:19:33;;;;;;;1999.90;999.90;;;;;;;;;;4967674;28;20057;-88
2024/01/11 04:21:59;;;;;;;1999.90;999.90;;;;;;;;;;4957847;28;20057;-87
2024/01/11 04:24:27;;;;;;;1999.90;999.90;;;;;;;;;;4963222;28;20057;-87
2024/01/11 04:26:53;;;;;;;1999.90;999.90;;;;;;;;;;4970035;28;20061;-88
2024/01/11 04:29:20;;;;;;;1999.90;999.90;;;;;;;;;;4958580;28;20043;-88
2024/01/11 04:31:46;;;;;;;1999.90;999.90;;;;;;;;;;4962391;28;20511;-87
2024/01/11 04:34:13;;;;;;;1999.90;999.90;;;;;;;;;;4969029;28;20058;-89
2024/01/11 04:36:40;;;;;;;1999.90;999.90;;;;;;;;;;4967126;28;20043;-89
2024/01/11 04:39:07;;;;;;;1999.90;999.90;;;;;;;;;;4963952;28;20051;-87
2024/01/11 04:41:36;;;;;;;1999.90;999.90;;;;;;;;;;4963524;28;20046;-89
2024/01/11 04:44:03;;;;;;;1999.90;999.90;;;;;;;;;;4966429;28;20047;-87
2024/01/11 04:46:29;;;;;;;1999.90;999.90;;;;;;;;;;4962903;28;20043;-89
2024/01/11 04:48:56;;;;;;;1999.90;999.90;;;;;;;;;;4967977;28;20050;-87
2024/01/11 04:51:22;;;;;;;1999.90;999.90;;;;;;;;;;4962646;28;20051;-86
2024/01/11 04:53:49;;;;;;;1999.90;999.90;;;;;;;;;;4965965;28;20051;-89
2024/01/11 04:56:16;;;;;;;1999.90;999.90;;;;;;;;;;4964723;28;20504;-88
2024/01/11 04:58:45;;;;;;;1999.90;999.90;;;;;;;;;;4960489;28;20051;-88
2024/01/11 05:01:13;;;;;;;1999.90;999.90;;;;;;;;;;4961491;28;20047;-87
2024/01/11 05:03:39;;;;;;;1999.90;999.90;;;;;;;;;;4965444;28;20057;-87
2024/01/11 05:06:06;;;;;;;1999.90;999.90;;;;;;;;;;4961738;28;20096;-87
2024/01/11 05:08:33;;;;;;;1999.90;999.90;;;;;;;;;;4957344;28;20050;-87
2024/01/11 05:11:00;;;;;;;1999.90;999.90;;;;;;;;;;4964065;28;20047;-88
2024/01/11 05:13:26;;;;;;;1999.90;999.90;;;;;;;;;;4964113;28;20494;-87
2024/01/11 05:15:54;;;;;;;1999.90;999.90;;;;;;;;;;4960376;28;20555;-90
2024/01/11 05:18:21;;;;;;;1999.90;999.90;;;;;;;;;;4967184;28;20511;-87
2024/01/11 05:20:47;;;;;;;1999.90;999.90;;;;;;;;;;4965459;28;20051;-87
2024/01/11 05:23:14;;;;;;;1999.90;999.90;;;;;;;;;;4966032;28;20498;-87
2024/01/11 05:25:40;;;;;;;1999.90;999.90;;;;;;;;;;4958093;28;20057;-87
2024/01/11 05:28:07;;;;;;;1999.90;999.90;;;;;;;;;;4963079;28;20126;-87
2024/01/11 05:30:34;;;;;;;1999.90;999.90;;;;;;;;;;4964476;28;20047;-87
2024/01/11 05:33:02;;;;;;;1999.90;999.90;;;;;;;;;;4960116;28;20157;-89
2024/01/11 05:35:28;;;;;;;1999.90;999.90;;;;;;;;;;4966084;28;20351;-86
2024/01/11 05:37:55;;;;;;;1999.90;999.90;;;;;;;;;;4962346;28;20047;-87
2024/01/11 05:40:23;;;;;;;1999.90;999.90;;;;;;;;;;4967545;28;20065;-87
2024/01/11 05:42:49;;;;;;;1999.90;999.90;;;;;;;;;;4964342;28;20582;-87
2024/01/11 05:45:16;;;;;;;1999.90;999.90;;;;;;;;;;4962656;28;20425;-87
2024/01/11 05:47:43;;;;;;;1999.90;999.90;;;;;;;;;;4968587;28;20141;-89
2024/01/11 05:50:12;;;;;;;1999.90;999.90;;;;;;;;;;4974986;28;20134;-88
2024/01/11 05:52:39;;;;;;;1999.90;999.90;;;;;;;;;;4971192;28;20062;-89
2024/01/11 05:55:06;;;;;;;1999.90;999.90;;;;;;;;;;4961158;28;20508;-87
2024/01/11 05:57:32;;;;;;;1999.90;999.90;;;;;;;;;;4969237;28;20047;-89
2024/01/11 05:59:59;;;;;;;1999.90;999.90;;;;;;;;;;4968343;28;20047;-88
2024/01/11 06:02:25;;;;;;;1999.90;999.90;;;;;;;;;;4971085;28;20055;-87
2024/01/11 06:04:52;;;;;;;1999.90;999.90;;;;;;;;;;4963858;28;20073;-87
2024/01/11 06:07:20;;;;;;;1999.90;999.90;;;;;;;;;;4969269;28;20086;-88
2024/01/11 06:09:46;;;;;;;1999.90;999.90;;;;;;;;;;4970432;28;20058;-88
2024/01/11 06:12:13;;;;;;;1999.90;999.90;;;;;;;;;;4971413;28;20061;-87
2024/01/11 06:14:40;;;;;;;1999.90;999.90;;;;;;;;;;4962294;28;20051;-87
2024/01/11 06:17:10;;;;;;;1999.90;999.90;;;;;;;;;;4970646;28;20043;-90
2024/01/11 06:19:37;;;;;;;1999.90;999.90;;;;;;;;;;4968612;28;20042;-90
2024/01/11 06:22:04;;;;;;;1999.90;999.90;;;;;;;;;;4968722;28;20058;-88
2024/01/11 06:24:31;;;;;;;1999.90;999.90;;;;;;;;;;4960553;28;20050;-88
2024/01/11 06:26:58;;;;;;;1999.90;999.90;;;;;;;;;;4966297;28;20444;-88
2024/01/11 06:29:24;;;;;;;1999.90;999.90;;;;;;;;;;4964713;28;20050;-87
2024/01/11 06:31:51;;;;;;;1999.90;999.90;;;;;;;;;;4967205;28;20047;-90
2024/01/11 06:34:18;;;;;;;1999.90;999.90;;;;;;;;;;4973993;28;20061;-87
2024/01/11 06:36:45;;;;;;;1999.90;999.90;;;;;;;;;;4962982;28;20047;-87
2024/01/11 06:39:12;;;;;;;1999.90;999.90;;;;;;;;;;4962329;28;20054;-86
2024/01/11 06:41:40;;;;;;;1999.90;999.90;;;;;;;;;;4961910;28;20454;-88
2024/01/11 06:44:07;;;;;;;1999.90;999.90;;;;;;;;;;4961238;28;20065;-86
2024/01/11 06:46:33;;;;;;;1999.90;999.90;;;;;;;;;;4963598;28;20051;-90
2024/01/11 06:49:00;;;;;;;1999.90;999.90;;;;;;;;;;4962478;28;20486;-88
2024/01/11 06:51:27;;;;;;;1999.90;999.90;;;;;;;;;;4969840;28;20059;-88
2024/01/11 06:53:53;;;;;;;1999.90;999.90;;;;;;;;;;4962904;28;20387;-90
2024/01/11 06:56:21;;;;;;;1999.90;999.90;;;;;;;;;;4970958;28;20046;-86
2024/01/11 06:58:49;;;;;;;1999.90;999.90;;;;;;;;;;4963740;28;20050;-87
2024/01/11 07:01:16;;;;;;;1999.90;999.90;;;;;;;;;;4970915;28;20115;-88
2024/01/11 07:03:42;;;;;;;1999.90;999.90;;;;;;;;;;4972235;28;20051;-86
2024/01/11 07:06:09;;;;;;;1999.90;999.90;;;;;;;;;;4967462;28;20130;-88
2024/01/11 07:08:36;;;;;;;1999.90;999.90;;;;;;;;;;4964840;28;20402;-86
2024/01/11 07:11:03;;;;;;;1999.90;999.90;;;;;;;;;;4970648;28;20077;-87
2024/01/11 07:13:29;;;;;;;1999.90;999.90;;;;;;;;;;4969861;28;20090;-91
2024/01/11 07:15:58;;;;;;;1999.90;999.90;;;;;;;;;;4977079;28;20114;-89
2024/01/11 07:18:24;;;;;;;1999.90;999.90;;;;;;;;;;4981617;28;20039;-90
2024/01/11 07:20:51;;;;;;;1999.90;999.90;;;;;;;;;;4983997;28;20073;-88
2024/01/11 07:23:17;;;;;;;1999.90;999.90;;;;;;;;;;4970119;28;20051;-87
2024/01/11 07:25:44;;;;;;;1999.90;999.90;;;;;;;;;;4962838;28;20057;-87
2024/01/11 07:28:11;;;;;;;1999.90;999.90;;;;;;;;;;4959880;28;20142;-87
2024/01/11 07:30:37;;;;;;;1999.90;999.90;;;;;;;;;;4968819;28;20042;-87
2024/01/11 07:33:05;;;;;;;1999.90;999.90;;;;;;;;;;4970629;28;20047;-88
2024/01/11 07:35:32;;;;;;;1999.90;999.90;;;;;;;;;;4966602;28;20047;-87
2024/01/11 07:37:58;;;;;;;1999.90;999.90;;;;;;;;;;4972939;28;20058;-88
2024/01/11 07:40:25;;;;;;;1999.90;999.90;;;;;;;;;;4967339;28;20070;-86
2024/01/11 07:42:51;;;;;;;1999.90;999.90;;;;;;;;;;4962039;28;20051;-88
2024/01/11 07:45:18;;;;;;;1999.90;999.90;;;;;;;;;;4967688;28;20160;-89
2024/01/11 07:47:45;;;;;;;1999.90;999.90;;;;;;;;;;4969166;28;20106;-88
2024/01/11 07:50:13;;;;;;;1999.90;999.90;;;;;;;;;;4962964;28;20055;-89
2024/01/11 07:52:41;;;;;;;1999.90;999.90;;;;;;;;;;4961012;28;20504;-88
2024/01/11 07:55:09;;;;;;;1999.90;999.90;;;;;;;;;;4963801;28;20054;-87
2024/01/11 07:57:36;;;;;;;1999.90;999.90;;;;;;;;;;4969545;28;20079;-87
2024/01/11 08:00:03;;;;;;;1999.90;999.90;;;;;;;;;;4962142;28;20585;-87
2024/01/11 08:02:30;;;;;;;1999.90;999.90;;;;;;;;;;4966899;28;20085;-87
2024/01/11 08:04:56;;;;;;;1999.90;999.90;;;;;;;;;;4969712;28;20054;-86
2024/01/11 08:07:25;;;;;;;1999.90;999.90;;;;;;;;;;4967673;28;20671;-88
2024/01/11 08:09:51;;;;;;;1999.90;999.90;;;;;;;;;;4964512;28;20057;-87
2024/01/11 08:12:18;;;;;;;1999.90;999.90;;;;;;;;;;4961063;28;20051;-87
2024/01/11 08:14:46;;;;;;;1999.90;999.90;;;;;;;;;;4966073;28;20046;-87
2024/01/11 08:17:13;;;;;;;1999.90;999.90;;;;;;;;;;4972541;28;20047;-90
2024/01/11 08:19:40;;;;;;;1999.90;999.90;;;;;;;;;;4966139;28;20395;-87
2024/01/11 08:22:07;;;;;;;1999.90;999.90;;;;;;;;;;4956769;28;20055;-86
2024/01/11 08:24:36;;;;;;;1999.90;999.90;;;;;;;;;;4963882;28;20062;-88
2024/01/11 08:27:02;;;;;;;1999.90;999.90;;;;;;;;;;4969916;28;20501;-87
2024/01/11 08:29:29;;;;;;;1999.90;999.90;;;;;;;;;;4962512;28;20054;-88
2024/01/11 08:31:56;;;;;;;1999.90;999.90;;;;;;;;;;4961487;28;20057;-87
2024/01/11 08:56:25;;;;;;;1999.90;999.90;;;;;;;;;;5162137;27;20379;-92
2024/01/11 08:58:52;;;;;;;1999.90;999.90;;;;;;;;;;5127308;28;20051;-92
2024/01/11 09:01:20;;;;;;;1999.90;999.90;;;;;;;;;;5114209;28;20565;-91
2024/01/11 09:03:48;;;;;;;1999.90;999.90;;;;;;;;;;5113865;28;20107;-91
2024/01/11 09:06:15;;;;;;;1999.90;999.90;;;;;;;;;;5121855;28;20055;-91
2024/01/11 09:08:42;;;;;;;1999.90;999.90;;;;;;;;;;5112423;28;20105;-90
2024/01/11 09:11:11;;;;;;;1999.90;999.90;;;;;;;;;;5112466;28;20048;-90
2024/01/11 09:13:40;;;;;;;1999.90;999.90;;;;;;;;;;5112350;28;20062;-90
2024/01/11 09:16:07;;;;;;;1999.90;999.90;;;;;;;;;;5118658;28;20054;-90
2024/01/11 09:18:36;;;;;;;1999.90;999.90;;;;;;;;;;5124366;28;20043;-90
2024/01/11 09:21:09;;;;;;;1999.90;999.90;;;;;;;;;;5115438;28;20135;-91
2024/01/11 09:23:36;;;;;;;1999.90;999.90;;;;;;;;;;5099244;28;20465;-92
2024/01/11 09:26:03;;;;;;;1999.90;999.90;;;;;;;;;;5118701;28;20147;-91
2024/01/11 09:28:30;;;;;;;1999.90;999.90;;;;;;;;;;5110199;28;20052;-91
2024/01/11 09:30:59;;;;;;;1999.90;999.90;;;;;;;;;;5112415;28;20071;-91
2024/01/11 09:33:26;;;;;;;1999.90;999.90;;;;;;;;;;5105642;28;20516;-91
2024/01/11 09:35:53;;;;;;;1999.90;999.90;;;;;;;;;;5125569;28;20039;-90
2024/01/11 09:38:20;;;;;;;1999.90;999.90;;;;;;;;;;5113157;28;20139;-91
2024/01/11 09:40:48;;;;;;;1999.90;999.90;;;;;;;;;;5093909;28;20052;-91
2024/01/11 09:43:15;;;;;;;1999.90;999.90;;;;;;;;;;5120245;28;20799;-91
2024/01/11 09:45:42;;;;;;;1999.90;999.90;;;;;;;;;;5114420;28;20059;-90
2024/01/11 09:48:12;;;;;;;1999.90;999.90;;;;;;;;;;5118064;28;20051;-89
2024/01/11 09:50:58;;;;;;;1999.90;999.90;;;;;;;;;;5117410;28;20074;-90
2024/01/11 09:53:26;;;;;;;1999.90;999.90;;;;;;;;;;5114675;28;20054;-89
2024/01/11 09:55:53;;;;;;;1999.90;999.90;;;;;;;;;;5127176;28;20055;-89
2024/01/11 09:58:21;;;;;;;1999.90;999.90;;;;;;;;;;5117681;28;20055;-90
2024/01/11 10:00:50;;;;;;;1999.90;999.90;;;;;;;;;;5113121;28;20055;-89
2024/01/11 10:03:19;;;;;;;1999.90;999.90;;;;;;;;;;5112859;28;20054;-89
2024/01/11 10:05:46;;;;;;;1999.90;999.90;;;;;;;;;;5116478;28;20225;-89
2024/01/11 10:08:13;;;;;;;1999.90;999.90;;;;;;;;;;5105279;28;20109;-89
2024/01/11 10:10:41;;;;;;;1999.90;999.90;;;;;;;;;;5109086;28;20055;-89
2024/01/11 10:13:08;;;;;;;1999.90;999.90;;;;;;;;;;5105827;28;20071;-90
2024/01/11 10:15:35;;;;;;;1999.90;999.90;;;;;;;;;;5096874;28;20135;-89
2024/01/11 10:18:02;;;;;;;1999.90;999.90;;;;;;;;;;5084406;28;20046;-89
2024/01/11 10:20:32;;;;;;;1999.90;999.90;;;;;;;;;;5086154;28;20178;-89
2024/01/11 10:22:59;;;;;;;1999.90;999.90;;;;;;;;;;5102444;28;20056;-89
2024/01/11 10:25:26;;;;;;;1999.90;999.90;;;;;;;;;;5114638;28;20043;-90
2024/01/11 10:27:53;;;;;;;1999.90;999.90;;;;;;;;;;5105552;28;20052;-89
2024/01/11 10:30:22;;;;;;;1999.90;999.90;;;;;;;;;;5146615;27;20044;-90
2024/01/11 10:32:49;;;;;;;1999.90;999.90;;;;;;;;;;5108134;28;20131;-89
2024/01/11 10:35:17;;;;;;;1999.90;999.90;;;;;;;;;;5106331;28;20044;-90
2024/01/11 10:37:47;;;;;;;1999.90;999.90;;;;;;;;;;5096650;28;20055;-91
2024/01/11 10:40:15;;;;;;;1999.90;999.90;;;;;;;;;;5098188;28;20079;-89
2024/01/11 10:42:43;;;;;;;1999.90;999.90;;;;;;;;;;5097038;28;20044;-89
2024/01/11 10:45:15;;;;;;;1999.90;999.90;;;;;;;;;;5107062;28;20500;-90
2024/01/11 10:47:49;;;;;;;1999.90;999.90;;;;;;;;;;5098108;28;20130;-90
2024/01/11 10:50:17;;;;;;;1999.90;999.90;;;;;;;;;;5110639;28;20055;-90
2024/01/11 10:52:57;;;;;;;1999.90;999.90;;;;;;;;;;5112959;28;20071;-90
2024/01/11 10:55:25;;;;;;;1999.90;999.90;;;;;;;;;;5117100;28;20052;-93
2024/01/11 10:57:52;;;;;;;1999.90;999.90;;;;;;;;;;5119050;28;20096;-93
2024/01/11 11:00:20;;;;;;;1999.90;999.90;;;;;;;;;;5116416;28;20071;-92
2024/01/11 11:02:51;;;;;;;1999.90;999.90;;;;;;;;;;5110781;28;20044;-92
2024/01/11 11:05:20;;;;;;;1999.90;999.90;;;;;;;;;;5107850;28;20052;-92
2024/01/11 11:07:49;;;;;;;1999.90;999.90;;;;;;;;;;5103696;28;20044;-95
2024/01/11 11:10:21;;;;;;;1999.90;999.90;;;;;;;;;;5114377;28;20101;-94
2024/01/11 11:12:49;;;;;;;1999.90;999.90;;;;;;;;;;5082765;28;20056;-95
2024/01/11 11:15:22;;;;;;;1999.90;999.90;;;;;;;;;;5098786;28;20067;-96
2024/01/11 11:20:31;;;;;;;1999.90;999.90;;;;;;;;;;5101089;28;20559;-95
2024/01/11 11:25:49;;;;;;;;;;;;;;;;;;5102053;28;20073;-95
2024/01/11 11:28:19;;;;;;;1999.90;999.90;;;;;;;;;;5097389;28;19927;-95
2024/01/11 11:30:59;;;;;;;1999.90;999.90;;;;;;;;;;5111087;28;20071;-96
2024/01/11 11:33:27;;;;;;;1999.90;999.90;;;;;;;;;;5092461;28;20105;-94
2024/01/11 11:35:55;;;;;;;1999.90;999.90;;;;;;;;;;5112685;28;20134;-90
2024/01/11 11:38:23;;;;;;;1999.90;999.90;;;;;;;;;;5099945;28;20126;-90
2024/01/11 11:40:53;;;;;;;1999.90;999.90;;;;;;;;;;5104640;28;20078;-90
2024/01/11 11:43:20;;;;;;;1999.90;999.90;;;;;;;;;;5097346;28;20597;-90
2024/01/11 11:45:48;;;;;;;1999.90;999.90;;;;;;;;;;5096830;28;20123;-90
2024/01/11 11:48:54;;;;;;;1999.90;999.90;;;;;;;;;;5098067;28;20127;-90
2024/01/11 11:51:22;;;;;;;1999.90;999.90;;;;;;;;;;5095538;28;20085;-90
2024/01/11 11:53:50;;;;;;;1999.90;999.90;;;;;;;;;;5083106;28;20139;-89
2024/01/11 11:56:20;;;;;;;1999.90;999.90;;;;;;;;;;5100475;28;20116;-92
2024/01/11 11:58:48;;;;;;;1999.90;999.90;;;;;;;;;;5108763;28;20048;-92
2024/01/11 12:01:17;;;;;;;1999.90;999.90;;;;;;;;;;5087684;28;20048;-92
2024/01/11 12:03:48;;;;;;;1999.90;999.90;;;;;;;;;;5100409;28;20051;-92
2024/01/11 12:06:16;;;;;;;1999.90;999.90;;;;;;;;;;5098137;28;20054;-93
2024/01/11 12:08:43;;;;;;;1999.90;999.90;;;;;;;;;;5097298;28;20055;-92
2024/01/11 12:11:10;;;;;;;1999.90;999.90;;;;;;;;;;5108612;28;20080;-93
2024/01/11 12:13:39;;;;;;;1999.90;999.90;;;;;;;;;;5089962;28;20072;-92
2024/01/11 12:16:06;;;;;;;1999.90;999.90;;;;;;;;;;5096113;28;20048;-91
2024/01/11 12:18:33;;;;;;;1999.90;999.90;;;;;;;;;;5109472;28;20082;-93
2024/01/11 12:21:00;;;;;;;1999.90;999.90;;;;;;;;;;5087049;28;20082;-93
2024/01/11 12:23:29;;;;;;;1999.90;999.90;;;;;;;;;;5085924;28;20051;-93
2024/01/11 12:25:56;;;;;;;1999.90;999.90;;;;;;;;;;5100937;28;20572;-94
2024/01/11 12:28:25;;;;;;;1999.90;999.90;;;;;;;;;;5090968;28;21043;-94
2024/01/11 12:30:54;;;;;;;1999.90;999.90;;;;;;;;;;5095129;28;20094;-92
2024/01/11 12:33:22;;;;;;;1999.90;999.90;;;;;;;;;;5102891;28;20139;-92
2024/01/11 12:35:49;;;;;;;1999.90;999.90;;;;;;;;;;5089717;28;20072;-93
2024/01/11 12:38:16;;;;;;;1999.90;999.90;;;;;;;;;;5096552;28;20083;-93
2024/01/11 12:40:44;;;;;;;1999.90;999.90;;;;;;;;;;5096857;28;20059;-92
2024/01/11 12:43:12;;;;;;;1999.90;999.90;;;;;;;;;;5138824;27;20079;-93
2024/01/11 12:45:41;;;;;;;1999.90;999.90;;;;;;;;;;5110886;28;20061;-92
2024/01/11 12:48:20;;;;;;;1999.90;999.90;;;;;;;;;;5110297;28;20065;-92
2024/01/11 12:51:07;;;;;;;1999.90;999.90;;;;;;;;;;5099226;28;20142;-93
2024/01/11 12:53:33;;;;;;;1999.90;999.90;;;;;;;;;;5106896;28;20151;-93
2024/01/11 12:56:08;;;;;;;1999.90;999.90;;;;;;;;;;5088512;28;20075;-93
2024/01/11 12:58:37;;;;;;;1999.90;999.90;;;;;;;;;;5103956;28;20044;-92
2024/01/11 13:01:07;;;;;;;1999.90;999.90;;;;;;;;;;5104849;28;20039;-92
2024/01/11 13:03:39;;;;;;;1999.90;999.90;;;;;;;;;;5098232;28;20052;-92
2024/01/11 13:06:11;;;;;;;1999.90;999.90;;;;;;;;;;5088240;28;20050;-92
2024/01/11 13:08:42;;;;;;;1999.90;999.90;;;;;;;;;;5098546;28;20043;-94
2024/01/11 13:11:16;;;;;;;1999.90;999.90;;;;;;;;;;5112662;28;20043;-93
2024/01/11 13:13:47;;;;;;;1999.90;999.90;;;;;;;;;;5112391;28;20079;-93
2024/01/11 13:16:15;;;;;;;1999.90;999.90;;;;;;;;;;5103466;28;20065;-94
2024/01/11 13:18:47;;;;;;;1999.90;999.90;;;;;;;;;;5109215;28;20135;-93
2024/01/11 13:21:13;;;;;;;1999.90;999.90;;;;;;;;;;5095800;28;20067;-93
2024/01/11 13:23:40;;;;;;;1999.90;999.90;;;;;;;;;;5103766;28;20101;-92
2024/01/11 13:28:48;;;;;;;1999.90;999.90;;;;;;;;;;5104815;28;20052;-92
2024/01/11 13:31:20;;;;;;;1999.90;999.90;;;;;;;;;;5114194;28;20088;-93
2024/01/11 13:33:52;;;;;;;1999.90;999.90;;;;;;;;;;5113900;28;20055;-94
2024/01/11 13:36:19;;;;;;;1999.90;999.90;;;;;;;;;;5112847;28;20095;-86
2024/01/11 13:38:47;;;;;;;1999.90;999.90;;;;;;;;;;5122265;28;20040;-94
2024/01/11 13:41:14;;;;;;;1999.90;999.90;;;;;;;;;;5122136;28;20062;-93
2024/01/11 13:43:43;;;;;;;1999.90;999.90;;;;;;;;;;5118178;28;20116;-94
2024/01/11 13:46:11;;;;;;;1999.90;999.90;;;;;;;;;;5110848;28;20048;-93
2024/01/11 13:48:39;;;;;;;1999.90;999.90;;;;;;;;;;5099033;28;20410;-94
2024/01/11 13:51:10;;;;;;;1999.90;999.90;;;;;;;;;;5088873;28;20484;-93
2024/01/11 14:01:40;;;;;;;1999.90;999.90;;;;;;;;;;5113521;28;20052;-94
2024/01/11 14:04:07;;;;;;;1999.90;999.90;;;;;;;;;;5107924;28;20138;-94
2024/01/11 14:06:44;;;;;;;1999.90;999.90;;;;;;;;;;5104753;28;20048;-93
2024/01/11 14:09:12;;;;;;;1999.90;999.90;;;;;;;;;;5111007;28;20458;-94
2024/01/11 14:11:40;;;;;;;1999.90;999.90;;;;;;;;;;5122169;28;20055;-92
2024/01/11 14:22:47;;;;;;;1999.90;999.90;;;;;;;;;;5114662;28;20127;-93
2024/01/11 14:45:07;;;;;;;1999.90;999.90;;;;;;;;;;5110851;28;20063;-95
2024/01/11 15:23:09;;;;;;;1999.90;999.90;;;;;;;;;;5087307;28;20151;-93
2024/01/11 15:28:19;;;;;;;1999.90;999.90;;;;;;;;;;5095938;28;20074;-93
2024/01/11 15:45:02;;;;;;;1999.90;999.90;;;;;;;;;;5108488;28;20055;-90